sensor_id;sensor_type;location;lat;lon;timestamp;P1;durP1;ratioP1;P2;durP2;ratioP2
37843;SDS011;23930;57.632;18.292;2022-08-19T00:01:54;14.88;;;13.45;;
37843;SDS011;23930;57.632;18.292;2022-08-19T00:04:25;16.58;;;14.80;;
37843;SDS011;23930;57.632;18.292;2022-08-19T00:06:55;16.05;;;14.68;;
37843;SDS011;23930;57.632;18.292;2022-08-19T00:09:22;18.67;;;16.92;;
37843;SDS011;23930;57.632;18.292;2022-08-19T00:11:50;16.63;;;15.00;;
37843;SDS011;23930;57.632;18.292;2022-08-19T00:14:18;14.82;;;13.40;;
37843;SDS011;23930;57.632;18.292;2022-08-19T00:16:47;16.65;;;15.02;;
37843;SDS011;23930;57.632;18.292;2022-08-19T00:19:15;16.83;;;14.95;;
37843;SDS011;23930;57.632;18.292;2022-08-19T00:21:42;15.52;;;14.15;;
37843;SDS011;23930;57.632;18.292;2022-08-19T00:24:10;16.10;;;14.50;;
37843;SDS011;23930;57.632;18.292;2022-08-19T00:26:39;18.20;;;16.70;;
37843;SDS011;23930;57.632;18.292;2022-08-19T00:29:08;17.27;;;15.77;;
37843;SDS011;23930;57.632;18.292;2022-08-19T00:31:36;16.10;;;14.65;;
37843;SDS011;23930;57.632;18.292;2022-08-19T00:34:03;17.17;;;15.27;;
37843;SDS011;23930;57.632;18.292;2022-08-19T00:36:30;15.82;;;14.30;;
37843;SDS011;23930;57.632;18.292;2022-08-19T00:38:59;16.30;;;14.82;;
37843;SDS011;23930;57.632;18.292;2022-08-19T00:41:26;16.40;;;15.02;;
37843;SDS011;23930;57.632;18.292;2022-08-19T00:43:58;17.15;;;15.02;;
37843;SDS011;23930;57.632;18.292;2022-08-19T00:46:37;14.68;;;13.38;;
37843;SDS011;23930;57.632;18.292;2022-08-19T00:49:08;14.97;;;13.60;;
37843;SDS011;23930;57.632;18.292;2022-08-19T00:51:47;17.77;;;16.00;;
37843;SDS011;23930;57.632;18.292;2022-08-19T00:54:18;16.30;;;14.73;;
37843;SDS011;23930;57.632;18.292;2022-08-19T00:56:54;17.75;;;16.15;;
37843;SDS011;23930;57.632;18.292;2022-08-19T00:59:22;16.30;;;14.75;;
37843;SDS011;23930;57.632;18.292;2022-08-19T01:02:09;18.20;;;16.23;;
37843;SDS011;23930;57.632;18.292;2022-08-19T01:04:35;19.25;;;17.52;;
37843;SDS011;23930;57.632;18.292;2022-08-19T01:07:02;18.23;;;16.42;;
37843;SDS011;23930;57.632;18.292;2022-08-19T01:09:30;19.95;;;17.75;;
37843;SDS011;23930;57.632;18.292;2022-08-19T01:11:57;21.85;;;17.02;;
37843;SDS011;23930;57.632;18.292;2022-08-19T01:14:24;19.50;;;17.58;;
37843;SDS011;23930;57.632;18.292;2022-08-19T01:16:52;19.08;;;17.30;;
37843;SDS011;23930;57.632;18.292;2022-08-19T01:19:24;20.05;;;17.70;;
37843;SDS011;23930;57.632;18.292;2022-08-19T01:21:58;22.88;;;18.80;;
37843;SDS011;23930;57.632;18.292;2022-08-19T01:24:40;19.42;;;17.20;;
37843;SDS011;23930;57.632;18.292;2022-08-19T01:27:15;20.02;;;17.92;;
37843;SDS011;23930;57.632;18.292;2022-08-19T01:29:43;17.77;;;15.98;;
37843;SDS011;23930;57.632;18.292;2022-08-19T01:32:12;18.48;;;16.77;;
37843;SDS011;23930;57.632;18.292;2022-08-19T01:34:59;19.52;;;17.45;;
37843;SDS011;23930;57.632;18.292;2022-08-19T01:37:28;18.23;;;15.85;;
37843;SDS011;23930;57.632;18.292;2022-08-19T01:39:56;19.10;;;17.40;;
37843;SDS011;23930;57.632;18.292;2022-08-19T01:42:24;17.60;;;15.65;;
37843;SDS011;23930;57.632;18.292;2022-08-19T01:44:55;25.58;;;16.30;;
37843;SDS011;23930;57.632;18.292;2022-08-19T01:47:22;17.58;;;15.80;;
37843;SDS011;23930;57.632;18.292;2022-08-19T01:49:49;17.58;;;15.80;;
37843;SDS011;23930;57.632;18.292;2022-08-19T01:52:16;17.77;;;16.20;;
37843;SDS011;23930;57.632;18.292;2022-08-19T01:54:43;19.75;;;17.95;;
37843;SDS011;23930;57.632;18.292;2022-08-19T01:57:10;16.52;;;15.02;;
37843;SDS011;23930;57.632;18.292;2022-08-19T01:59:40;19.73;;;16.92;;
37843;SDS011;23930;57.632;18.292;2022-08-19T02:02:09;17.15;;;15.55;;
37843;SDS011;23930;57.632;18.292;2022-08-19T02:04:36;17.40;;;15.75;;
37843;SDS011;23930;57.632;18.292;2022-08-19T02:07:04;16.10;;;14.68;;
37843;SDS011;23930;57.632;18.292;2022-08-19T02:09:32;16.58;;;15.15;;
37843;SDS011;23930;57.632;18.292;2022-08-19T02:12:00;16.80;;;15.10;;
37843;SDS011;23930;57.632;18.292;2022-08-19T02:14:27;17.55;;;15.77;;
37843;SDS011;23930;57.632;18.292;2022-08-19T02:16:54;17.13;;;15.63;;
37843;SDS011;23930;57.632;18.292;2022-08-19T02:19:21;18.65;;;16.95;;
37843;SDS011;23930;57.632;18.292;2022-08-19T02:21:48;16.13;;;14.63;;
37843;SDS011;23930;57.632;18.292;2022-08-19T02:24:15;17.10;;;15.65;;
37843;SDS011;23930;57.632;18.292;2022-08-19T02:26:42;15.68;;;14.27;;
37843;SDS011;23930;57.632;18.292;2022-08-19T02:29:09;17.48;;;15.88;;
37843;SDS011;23930;57.632;18.292;2022-08-19T02:31:36;17.48;;;16.02;;
37843;SDS011;23930;57.632;18.292;2022-08-19T02:34:03;18.42;;;16.75;;
37843;SDS011;23930;57.632;18.292;2022-08-19T02:36:30;17.75;;;15.30;;
37843;SDS011;23930;57.632;18.292;2022-08-19T02:38:57;16.98;;;15.48;;
37843;SDS011;23930;57.632;18.292;2022-08-19T02:41:25;17.17;;;15.63;;
37843;SDS011;23930;57.632;18.292;2022-08-19T02:43:54;16.75;;;15.13;;
37843;SDS011;23930;57.632;18.292;2022-08-19T02:46:45;17.55;;;15.95;;
37843;SDS011;23930;57.632;18.292;2022-08-19T02:49:13;17.10;;;15.50;;
37843;SDS011;23930;57.632;18.292;2022-08-19T02:51:43;17.73;;;15.98;;
37843;SDS011;23930;57.632;18.292;2022-08-19T02:54:12;16.42;;;14.93;;
37843;SDS011;23930;57.632;18.292;2022-08-19T02:56:40;18.65;;;16.83;;
37843;SDS011;23930;57.632;18.292;2022-08-19T02:59:09;16.88;;;15.38;;
37843;SDS011;23930;57.632;18.292;2022-08-19T03:01:38;19.88;;;18.00;;
37843;SDS011;23930;57.632;18.292;2022-08-19T03:04:08;17.83;;;16.10;;
37843;SDS011;23930;57.632;18.292;2022-08-19T03:06:37;16.97;;;15.30;;
37843;SDS011;23930;57.632;18.292;2022-08-19T03:09:05;18.45;;;16.85;;
37843;SDS011;23930;57.632;18.292;2022-08-19T03:11:32;15.85;;;14.48;;
37843;SDS011;23930;57.632;18.292;2022-08-19T03:13:59;18.80;;;16.85;;
37843;SDS011;23930;57.632;18.292;2022-08-19T03:16:28;15.88;;;14.23;;
37843;SDS011;23930;57.632;18.292;2022-08-19T03:18:59;15.88;;;14.20;;
37843;SDS011;23930;57.632;18.292;2022-08-19T03:21:29;18.48;;;16.75;;
37843;SDS011;23930;57.632;18.292;2022-08-19T03:23:58;18.15;;;16.55;;
37843;SDS011;23930;57.632;18.292;2022-08-19T03:28:55;17.02;;;15.52;;
37843;SDS011;23930;57.632;18.292;2022-08-19T03:31:24;18.02;;;16.25;;
37843;SDS011;23930;57.632;18.292;2022-08-19T03:34:14;19.15;;;17.42;;
37843;SDS011;23930;57.632;18.292;2022-08-19T03:39:22;17.65;;;16.10;;
37843;SDS011;23930;57.632;18.292;2022-08-19T03:41:50;16.63;;;15.13;;
37843;SDS011;23930;57.632;18.292;2022-08-19T03:44:38;18.23;;;16.63;;
37843;SDS011;23930;57.632;18.292;2022-08-19T03:47:05;16.52;;;15.05;;
37843;SDS011;23930;57.632;18.292;2022-08-19T03:49:32;15.68;;;14.07;;
37843;SDS011;23930;57.632;18.292;2022-08-19T03:52:02;17.60;;;15.85;;
37843;SDS011;23930;57.632;18.292;2022-08-19T03:54:33;17.13;;;15.63;;
37843;SDS011;23930;57.632;18.292;2022-08-19T03:57:02;28.27;;;17.45;;
37843;SDS011;23930;57.632;18.292;2022-08-19T03:59:30;16.85;;;15.25;;
37843;SDS011;23930;57.632;18.292;2022-08-19T04:01:59;20.05;;;18.15;;
37843;SDS011;23930;57.632;18.292;2022-08-19T04:04:28;18.15;;;16.52;;
37843;SDS011;23930;57.632;18.292;2022-08-19T04:06:57;16.27;;;14.88;;
37843;SDS011;23930;57.632;18.292;2022-08-19T04:09:24;17.90;;;16.25;;
37843;SDS011;23930;57.632;18.292;2022-08-19T04:11:52;17.80;;;15.55;;
37843;SDS011;23930;57.632;18.292;2022-08-19T04:14:23;17.35;;;15.85;;
37843;SDS011;23930;57.632;18.292;2022-08-19T04:16:52;18.60;;;16.60;;
37843;SDS011;23930;57.632;18.292;2022-08-19T04:19:19;18.80;;;16.83;;
37843;SDS011;23930;57.632;18.292;2022-08-19T04:21:48;19.95;;;17.67;;
37843;SDS011;23930;57.632;18.292;2022-08-19T04:24:17;20.58;;;15.18;;
37843;SDS011;23930;57.632;18.292;2022-08-19T04:26:45;18.73;;;16.73;;
37843;SDS011;23930;57.632;18.292;2022-08-19T04:29:13;15.63;;;14.05;;
37843;SDS011;23930;57.632;18.292;2022-08-19T04:31:48;16.52;;;14.98;;
37843;SDS011;23930;57.632;18.292;2022-08-19T04:34:16;15.93;;;14.43;;
37843;SDS011;23930;57.632;18.292;2022-08-19T04:36:48;15.02;;;13.77;;
37843;SDS011;23930;57.632;18.292;2022-08-19T04:39:18;17.60;;;15.85;;
37843;SDS011;23930;57.632;18.292;2022-08-19T04:41:47;14.93;;;13.43;;
37843;SDS011;23930;57.632;18.292;2022-08-19T04:44:34;16.83;;;15.32;;
37843;SDS011;23930;57.632;18.292;2022-08-19T04:47:10;18.08;;;16.33;;
37843;SDS011;23930;57.632;18.292;2022-08-19T04:49:37;22.52;;;16.88;;
37843;SDS011;23930;57.632;18.292;2022-08-19T04:52:04;14.48;;;13.20;;
37843;SDS011;23930;57.632;18.292;2022-08-19T04:54:31;16.92;;;15.25;;
37843;SDS011;23930;57.632;18.292;2022-08-19T04:57:04;12.57;;;11.38;;
37843;SDS011;23930;57.632;18.292;2022-08-19T04:59:34;13.65;;;12.35;;
37843;SDS011;23930;57.632;18.292;2022-08-19T05:02:01;13.15;;;11.95;;
37843;SDS011;23930;57.632;18.292;2022-08-19T05:04:29;13.88;;;12.60;;
37843;SDS011;23930;57.632;18.292;2022-08-19T05:07:00;12.48;;;11.15;;
37843;SDS011;23930;57.632;18.292;2022-08-19T05:09:28;13.27;;;11.95;;
37843;SDS011;23930;57.632;18.292;2022-08-19T05:12:16;13.07;;;11.68;;
37843;SDS011;23930;57.632;18.292;2022-08-19T05:14:44;12.32;;;11.13;;
37843;SDS011;23930;57.632;18.292;2022-08-19T05:17:13;13.45;;;10.52;;
37843;SDS011;23930;57.632;18.292;2022-08-19T05:20:00;14.27;;;10.43;;
37843;SDS011;23930;57.632;18.292;2022-08-19T05:22:48;13.05;;;11.13;;
37843;SDS011;23930;57.632;18.292;2022-08-19T05:25:16;12.70;;;11.40;;
37843;SDS011;23930;57.632;18.292;2022-08-19T05:27:45;14.20;;;10.32;;
37843;SDS011;23930;57.632;18.292;2022-08-19T05:30:13;13.60;;;10.90;;
37843;SDS011;23930;57.632;18.292;2022-08-19T05:32:41;11.55;;;10.45;;
37843;SDS011;23930;57.632;18.292;2022-08-19T05:35:08;11.82;;;10.55;;
37843;SDS011;23930;57.632;18.292;2022-08-19T05:37:36;11.02;;;9.93;;
37843;SDS011;23930;57.632;18.292;2022-08-19T05:40:03;11.10;;;9.98;;
37843;SDS011;23930;57.632;18.292;2022-08-19T05:42:30;11.10;;;9.95;;
37843;SDS011;23930;57.632;18.292;2022-08-19T05:44:57;10.05;;;9.15;;
37843;SDS011;23930;57.632;18.292;2022-08-19T05:47:24;9.40;;;8.40;;
37843;SDS011;23930;57.632;18.292;2022-08-19T05:49:51;10.77;;;8.63;;
37843;SDS011;23930;57.632;18.292;2022-08-19T05:52:19;11.30;;;10.00;;
37843;SDS011;23930;57.632;18.292;2022-08-19T05:54:52;9.88;;;8.63;;
37843;SDS011;23930;57.632;18.292;2022-08-19T05:57:22;9.30;;;8.05;;
37843;SDS011;23930;57.632;18.292;2022-08-19T05:59:50;13.38;;;8.98;;
37843;SDS011;23930;57.632;18.292;2022-08-19T06:02:24;9.07;;;8.18;;
37843;SDS011;23930;57.632;18.292;2022-08-19T06:04:59;13.13;;;10.00;;
37843;SDS011;23930;57.632;18.292;2022-08-19T06:07:26;10.35;;;9.35;;
37843;SDS011;23930;57.632;18.292;2022-08-19T06:09:55;11.75;;;8.43;;
37843;SDS011;23930;57.632;18.292;2022-08-19T06:12:27;9.85;;;8.93;;
37843;SDS011;23930;57.632;18.292;2022-08-19T06:15:00;16.15;;;9.82;;
37843;SDS011;23930;57.632;18.292;2022-08-19T06:19:57;10.52;;;9.45;;
37843;SDS011;23930;57.632;18.292;2022-08-19T06:22:25;9.98;;;8.32;;
37843;SDS011;23930;57.632;18.292;2022-08-19T06:24:53;10.63;;;9.52;;
37843;SDS011;23930;57.632;18.292;2022-08-19T06:27:20;10.75;;;9.80;;
37843;SDS011;23930;57.632;18.292;2022-08-19T06:29:48;10.95;;;8.75;;
37843;SDS011;23930;57.632;18.292;2022-08-19T06:32:15;10.13;;;9.30;;
37843;SDS011;23930;57.632;18.292;2022-08-19T06:34:44;9.73;;;8.02;;
37843;SDS011;23930;57.632;18.292;2022-08-19T06:37:12;8.75;;;7.78;;
37843;SDS011;23930;57.632;18.292;2022-08-19T06:39:43;13.52;;;9.40;;
37843;SDS011;23930;57.632;18.292;2022-08-19T06:42:11;15.10;;;8.65;;
37843;SDS011;23930;57.632;18.292;2022-08-19T06:44:40;9.90;;;8.95;;
37843;SDS011;23930;57.632;18.292;2022-08-19T06:47:14;9.32;;;8.45;;
37843;SDS011;23930;57.632;18.292;2022-08-19T06:49:53;10.75;;;9.40;;
37843;SDS011;23930;57.632;18.292;2022-08-19T06:52:27;12.32;;;9.10;;
37843;SDS011;23930;57.632;18.292;2022-08-19T06:54:54;10.35;;;8.32;;
37843;SDS011;23930;57.632;18.292;2022-08-19T06:57:25;10.77;;;8.93;;
37843;SDS011;23930;57.632;18.292;2022-08-19T06:59:52;11.40;;;8.10;;
37843;SDS011;23930;57.632;18.292;2022-08-19T07:02:19;13.15;;;9.25;;
37843;SDS011;23930;57.632;18.292;2022-08-19T07:04:47;10.70;;;7.60;;
37843;SDS011;23930;57.632;18.292;2022-08-19T07:07:18;11.57;;;8.57;;
37843;SDS011;23930;57.632;18.292;2022-08-19T07:09:47;13.10;;;8.48;;
37843;SDS011;23930;57.632;18.292;2022-08-19T07:12:23;10.23;;;8.65;;
37843;SDS011;23930;57.632;18.292;2022-08-19T07:14:51;9.15;;;8.23;;
37843;SDS011;23930;57.632;18.292;2022-08-19T07:17:19;8.23;;;7.53;;
37843;SDS011;23930;57.632;18.292;2022-08-19T07:19:47;14.52;;;8.60;;
37843;SDS011;23930;57.632;18.292;2022-08-19T07:22:14;8.70;;;7.90;;
37843;SDS011;23930;57.632;18.292;2022-08-19T07:24:42;9.63;;;7.75;;
37843;SDS011;23930;57.632;18.292;2022-08-19T07:27:17;8.05;;;7.45;;
37843;SDS011;23930;57.632;18.292;2022-08-19T07:29:51;8.25;;;6.95;;
37843;SDS011;23930;57.632;18.292;2022-08-19T07:32:25;12.48;;;8.70;;
37843;SDS011;23930;57.632;18.292;2022-08-19T07:34:58;12.82;;;9.23;;
37843;SDS011;23930;57.632;18.292;2022-08-19T07:37:27;7.27;;;6.57;;
37843;SDS011;23930;57.632;18.292;2022-08-19T07:39:59;7.80;;;7.10;;
37843;SDS011;23930;57.632;18.292;2022-08-19T07:42:27;8.70;;;7.90;;
37843;SDS011;23930;57.632;18.292;2022-08-19T07:44:56;8.27;;;7.47;;
37843;SDS011;23930;57.632;18.292;2022-08-19T07:47:24;7.90;;;7.28;;
37843;SDS011;23930;57.632;18.292;2022-08-19T07:50:12;8.98;;;7.60;;
37843;SDS011;23930;57.632;18.292;2022-08-19T07:52:39;7.63;;;6.85;;
37843;SDS011;23930;57.632;18.292;2022-08-19T07:55:07;11.13;;;7.18;;
37843;SDS011;23930;57.632;18.292;2022-08-19T07:57:56;9.55;;;6.95;;
37843;SDS011;23930;57.632;18.292;2022-08-19T08:00:23;8.07;;;6.75;;
37843;SDS011;23930;57.632;18.292;2022-08-19T08:02:50;7.75;;;7.05;;
37843;SDS011;23930;57.632;18.292;2022-08-19T08:05:21;7.40;;;6.18;;
37843;SDS011;23930;57.632;18.292;2022-08-19T08:08:10;7.40;;;6.00;;
37843;SDS011;23930;57.632;18.292;2022-08-19T08:10:59;7.80;;;7.07;;
37843;SDS011;23930;57.632;18.292;2022-08-19T08:13:26;7.28;;;6.43;;
37843;SDS011;23930;57.632;18.292;2022-08-19T08:15:54;8.20;;;7.40;;
37843;SDS011;23930;57.632;18.292;2022-08-19T08:18:22;8.77;;;7.88;;
37843;SDS011;23930;57.632;18.292;2022-08-19T08:20:55;6.60;;;6.03;;
37843;SDS011;23930;57.632;18.292;2022-08-19T08:23:23;8.13;;;7.30;;
37843;SDS011;23930;57.632;18.292;2022-08-19T08:25:54;9.35;;;6.45;;
37843;SDS011;23930;57.632;18.292;2022-08-19T08:28:23;10.48;;;7.13;;
37843;SDS011;23930;57.632;18.292;2022-08-19T08:30:55;8.10;;;7.30;;
37843;SDS011;23930;57.632;18.292;2022-08-19T08:33:24;7.18;;;6.57;;
37843;SDS011;23930;57.632;18.292;2022-08-19T08:36:00;11.77;;;7.75;;
37843;SDS011;23930;57.632;18.292;2022-08-19T08:38:34;8.82;;;7.55;;
37843;SDS011;23930;57.632;18.292;2022-08-19T08:43:55;11.02;;;8.27;;
37843;SDS011;23930;57.632;18.292;2022-08-19T08:51:48;9.45;;;8.48;;
37843;SDS011;23930;57.632;18.292;2022-08-19T08:54:33;11.35;;;7.47;;
37843;SDS011;23930;57.632;18.292;2022-08-19T08:57:28;11.48;;;7.78;;
37843;SDS011;23930;57.632;18.292;2022-08-19T09:00:07;9.18;;;8.02;;
37843;SDS011;23930;57.632;18.292;2022-08-19T09:02:41;8.45;;;7.68;;
37843;SDS011;23930;57.632;18.292;2022-08-19T09:05:09;11.50;;;9.57;;
37843;SDS011;23930;57.632;18.292;2022-08-19T09:10:19;11.65;;;7.97;;
37843;SDS011;23930;57.632;18.292;2022-08-19T09:13:19;8.60;;;6.88;;
37843;SDS011;23930;57.632;18.292;2022-08-19T09:16:07;7.30;;;6.47;;
37843;SDS011;23930;57.632;18.292;2022-08-19T09:18:54;7.80;;;6.13;;
37843;SDS011;23930;57.632;18.292;2022-08-19T09:21:25;8.23;;;7.47;;
37843;SDS011;23930;57.632;18.292;2022-08-19T09:23:59;7.68;;;6.93;;
37843;SDS011;23930;57.632;18.292;2022-08-19T09:26:31;9.40;;;8.25;;
37843;SDS011;23930;57.632;18.292;2022-08-19T09:29:18;7.38;;;6.78;;
37843;SDS011;23930;57.632;18.292;2022-08-19T09:34:16;7.45;;;6.75;;
37843;SDS011;23930;57.632;18.292;2022-08-19T09:36:47;11.43;;;7.75;;
37843;SDS011;23930;57.632;18.292;2022-08-19T09:39:16;17.25;;;8.25;;
37843;SDS011;23930;57.632;18.292;2022-08-19T09:41:43;19.05;;;9.27;;
37843;SDS011;23930;57.632;18.292;2022-08-19T09:44:14;7.70;;;6.80;;
37843;SDS011;23930;57.632;18.292;2022-08-19T09:46:41;8.38;;;7.32;;
37843;SDS011;23930;57.632;18.292;2022-08-19T09:49:08;11.10;;;6.90;;
37843;SDS011;23930;57.632;18.292;2022-08-19T09:51:35;7.53;;;6.78;;
37843;SDS011;23930;57.632;18.292;2022-08-19T09:54:02;9.63;;;8.30;;
37843;SDS011;23930;57.632;18.292;2022-08-19T09:56:31;8.70;;;7.75;;
37843;SDS011;23930;57.632;18.292;2022-08-19T09:59:00;9.02;;;7.32;;
37843;SDS011;23930;57.632;18.292;2022-08-19T10:01:28;7.43;;;6.68;;
37843;SDS011;23930;57.632;18.292;2022-08-19T10:03:57;10.88;;;7.18;;
37843;SDS011;23930;57.632;18.292;2022-08-19T10:06:27;9.20;;;7.77;;
37843;SDS011;23930;57.632;18.292;2022-08-19T10:09:12;10.00;;;7.10;;
37843;SDS011;23930;57.632;18.292;2022-08-19T10:11:40;7.18;;;6.47;;
37843;SDS011;23930;57.632;18.292;2022-08-19T10:14:19;9.23;;;7.70;;
37843;SDS011;23930;57.632;18.292;2022-08-19T10:16:48;13.88;;;8.20;;
37843;SDS011;23930;57.632;18.292;2022-08-19T10:19:16;7.88;;;7.03;;
37843;SDS011;23930;57.632;18.292;2022-08-19T10:21:51;10.40;;;6.95;;
37843;SDS011;23930;57.632;18.292;2022-08-19T10:24:18;8.07;;;7.32;;
37843;SDS011;23930;57.632;18.292;2022-08-19T10:26:47;9.30;;;6.80;;
37843;SDS011;23930;57.632;18.292;2022-08-19T10:29:24;10.30;;;7.30;;
37843;SDS011;23930;57.632;18.292;2022-08-19T10:32:02;12.00;;;8.95;;
37843;SDS011;23930;57.632;18.292;2022-08-19T10:34:38;8.13;;;7.38;;
37843;SDS011;23930;57.632;18.292;2022-08-19T10:37:13;13.20;;;7.10;;
37843;SDS011;23930;57.632;18.292;2022-08-19T10:39:49;9.40;;;7.88;;
37843;SDS011;23930;57.632;18.292;2022-08-19T10:42:16;8.73;;;7.03;;
37843;SDS011;23930;57.632;18.292;2022-08-19T10:44:44;13.75;;;7.80;;
37843;SDS011;23930;57.632;18.292;2022-08-19T10:47:13;7.93;;;6.80;;
37843;SDS011;23930;57.632;18.292;2022-08-19T10:49:50;8.45;;;6.22;;
37843;SDS011;23930;57.632;18.292;2022-08-19T10:52:38;9.52;;;6.13;;
37843;SDS011;23930;57.632;18.292;2022-08-19T10:55:16;12.50;;;9.65;;
37843;SDS011;23930;57.632;18.292;2022-08-19T10:58:04;10.63;;;6.57;;
37843;SDS011;23930;57.632;18.292;2022-08-19T11:00:40;8.55;;;7.70;;
37843;SDS011;23930;57.632;18.292;2022-08-19T11:03:09;10.65;;;8.63;;
37843;SDS011;23930;57.632;18.292;2022-08-19T11:05:36;7.22;;;6.65;;
37843;SDS011;23930;57.632;18.292;2022-08-19T11:08:06;7.53;;;6.82;;
37843;SDS011;23930;57.632;18.292;2022-08-19T11:10:49;10.45;;;6.88;;
37843;SDS011;23930;57.632;18.292;2022-08-19T11:13:20;10.27;;;7.38;;
37843;SDS011;23930;57.632;18.292;2022-08-19T11:15:47;7.97;;;6.20;;
37843;SDS011;23930;57.632;18.292;2022-08-19T11:18:13;7.60;;;7.00;;
37843;SDS011;23930;57.632;18.292;2022-08-19T11:20:40;11.02;;;6.75;;
37843;SDS011;23930;57.632;18.292;2022-08-19T11:23:07;8.95;;;6.88;;
37843;SDS011;23930;57.632;18.292;2022-08-19T11:25:34;9.70;;;7.18;;
37843;SDS011;23930;57.632;18.292;2022-08-19T11:28:05;8.65;;;7.15;;
37843;SDS011;23930;57.632;18.292;2022-08-19T11:30:32;9.88;;;7.13;;
37843;SDS011;23930;57.632;18.292;2022-08-19T11:33:00;16.58;;;7.25;;
37843;SDS011;23930;57.632;18.292;2022-08-19T11:35:27;11.02;;;8.43;;
37843;SDS011;23930;57.632;18.292;2022-08-19T11:37:54;10.65;;;7.28;;
37843;SDS011;23930;57.632;18.292;2022-08-19T11:40:22;10.32;;;8.75;;
37843;SDS011;23930;57.632;18.292;2022-08-19T11:42:49;15.88;;;7.93;;
37843;SDS011;23930;57.632;18.292;2022-08-19T11:45:23;13.18;;;8.20;;
37843;SDS011;23930;57.632;18.292;2022-08-19T11:47:50;8.38;;;7.57;;
37843;SDS011;23930;57.632;18.292;2022-08-19T11:50:18;9.23;;;7.65;;
37843;SDS011;23930;57.632;18.292;2022-08-19T11:52:46;8.32;;;7.15;;
37843;SDS011;23930;57.632;18.292;2022-08-19T11:55:13;11.02;;;8.55;;
37843;SDS011;23930;57.632;18.292;2022-08-19T11:57:40;12.85;;;7.55;;
37843;SDS011;23930;57.632;18.292;2022-08-19T12:00:09;9.45;;;8.48;;
37843;SDS011;23930;57.632;18.292;2022-08-19T12:05:06;20.45;;;7.88;;
37843;SDS011;23930;57.632;18.292;2022-08-19T12:07:38;11.00;;;7.25;;
37843;SDS011;23930;57.632;18.292;2022-08-19T12:10:07;10.85;;;7.68;;
37843;SDS011;23930;57.632;18.292;2022-08-19T12:12:36;8.52;;;7.75;;
37843;SDS011;23930;57.632;18.292;2022-08-19T12:15:09;10.30;;;7.20;;
37843;SDS011;23930;57.632;18.292;2022-08-19T12:17:37;9.70;;;7.90;;
37843;SDS011;23930;57.632;18.292;2022-08-19T12:20:04;9.68;;;7.40;;
37843;SDS011;23930;57.632;18.292;2022-08-19T12:22:32;12.32;;;7.75;;
37843;SDS011;23930;57.632;18.292;2022-08-19T12:25:01;8.95;;;8.05;;
37843;SDS011;23930;57.632;18.292;2022-08-19T12:27:28;14.75;;;7.97;;
37843;SDS011;23930;57.632;18.292;2022-08-19T12:30:06;12.55;;;7.90;;
37843;SDS011;23930;57.632;18.292;2022-08-19T12:35:03;10.98;;;7.88;;
37843;SDS011;23930;57.632;18.292;2022-08-19T12:37:30;9.23;;;7.63;;
37843;SDS011;23930;57.632;18.292;2022-08-19T12:39:58;8.48;;;7.30;;
37843;SDS011;23930;57.632;18.292;2022-08-19T12:42:26;7.90;;;7.28;;
37843;SDS011;23930;57.632;18.292;2022-08-19T12:44:53;10.20;;;7.68;;
37843;SDS011;23930;57.632;18.292;2022-08-19T12:47:20;13.27;;;8.05;;
37843;SDS011;23930;57.632;18.292;2022-08-19T12:49:47;11.50;;;8.77;;
37843;SDS011;23930;57.632;18.292;2022-08-19T12:52:21;9.43;;;7.88;;
37843;SDS011;23930;57.632;18.292;2022-08-19T12:54:50;9.70;;;8.63;;
37843;SDS011;23930;57.632;18.292;2022-08-19T12:57:20;10.02;;;8.10;;
37843;SDS011;23930;57.632;18.292;2022-08-19T13:02:40;12.23;;;7.30;;
37843;SDS011;23930;57.632;18.292;2022-08-19T13:05:11;8.93;;;8.02;;
37843;SDS011;23930;57.632;18.292;2022-08-19T13:07:42;7.97;;;7.28;;
37843;SDS011;23930;57.632;18.292;2022-08-19T13:10:13;13.32;;;8.07;;
37843;SDS011;23930;57.632;18.292;2022-08-19T13:12:44;8.13;;;7.32;;
37843;SDS011;23930;57.632;18.292;2022-08-19T13:15:13;9.57;;;8.75;;
37843;SDS011;23930;57.632;18.292;2022-08-19T13:17:50;10.18;;;8.55;;
37843;SDS011;23930;57.632;18.292;2022-08-19T13:20:19;8.77;;;7.22;;
37843;SDS011;23930;57.632;18.292;2022-08-19T13:22:48;9.75;;;6.95;;
37843;SDS011;23930;57.632;18.292;2022-08-19T13:25:16;10.52;;;7.50;;
37843;SDS011;23930;57.632;18.292;2022-08-19T13:27:45;8.38;;;7.32;;
37843;SDS011;23930;57.632;18.292;2022-08-19T13:30:13;8.75;;;7.85;;
37843;SDS011;23930;57.632;18.292;2022-08-19T13:33:00;8.02;;;6.78;;
37843;SDS011;23930;57.632;18.292;2022-08-19T13:35:44;12.27;;;8.45;;
37843;SDS011;23930;57.632;18.292;2022-08-19T13:38:17;11.40;;;7.63;;
37843;SDS011;23930;57.632;18.292;2022-08-19T13:40:47;12.85;;;7.88;;
37843;SDS011;23930;57.632;18.292;2022-08-19T13:43:16;12.95;;;8.13;;
37843;SDS011;23930;57.632;18.292;2022-08-19T13:45:49;8.60;;;7.28;;
37843;SDS011;23930;57.632;18.292;2022-08-19T13:48:20;7.55;;;6.80;;
37843;SDS011;23930;57.632;18.292;2022-08-19T13:50:47;11.73;;;8.75;;
37843;SDS011;23930;57.632;18.292;2022-08-19T13:53:14;7.82;;;7.13;;
37843;SDS011;23930;57.632;18.292;2022-08-19T13:55:43;8.15;;;7.35;;
37843;SDS011;23930;57.632;18.292;2022-08-19T13:58:11;14.43;;;7.32;;
37843;SDS011;23930;57.632;18.292;2022-08-19T14:00:40;8.07;;;7.20;;
37843;SDS011;23930;57.632;18.292;2022-08-19T14:03:10;8.90;;;7.47;;
37843;SDS011;23930;57.632;18.292;2022-08-19T14:05:38;8.57;;;7.72;;
37843;SDS011;23930;57.632;18.292;2022-08-19T14:08:05;8.20;;;7.40;;
37843;SDS011;23930;57.632;18.292;2022-08-19T14:10:32;8.15;;;7.40;;
37843;SDS011;23930;57.632;18.292;2022-08-19T14:13:00;11.32;;;7.25;;
37843;SDS011;23930;57.632;18.292;2022-08-19T14:15:29;6.30;;;5.53;;
37843;SDS011;23930;57.632;18.292;2022-08-19T14:17:56;7.85;;;7.18;;
37843;SDS011;23930;57.632;18.292;2022-08-19T14:20:23;9.75;;;6.55;;
37843;SDS011;23930;57.632;18.292;2022-08-19T14:22:52;10.60;;;8.63;;
37843;SDS011;23930;57.632;18.292;2022-08-19T14:25:20;7.07;;;6.45;;
37843;SDS011;23930;57.632;18.292;2022-08-19T14:27:50;8.45;;;7.55;;
37843;SDS011;23930;57.632;18.292;2022-08-19T14:30:19;9.85;;;6.50;;
37843;SDS011;23930;57.632;18.292;2022-08-19T14:32:48;6.15;;;5.55;;
37843;SDS011;23930;57.632;18.292;2022-08-19T14:35:15;7.30;;;6.47;;
37843;SDS011;23930;57.632;18.292;2022-08-19T14:37:42;6.15;;;5.50;;
37843;SDS011;23930;57.632;18.292;2022-08-19T14:40:15;7.57;;;6.80;;
37843;SDS011;23930;57.632;18.292;2022-08-19T14:42:46;7.60;;;6.50;;
37843;SDS011;23930;57.632;18.292;2022-08-19T14:45:14;8.20;;;5.93;;
37843;SDS011;23930;57.632;18.292;2022-08-19T14:47:41;6.40;;;5.78;;
37843;SDS011;23930;57.632;18.292;2022-08-19T14:52:44;10.65;;;5.97;;
37843;SDS011;23930;57.632;18.292;2022-08-19T14:55:11;7.65;;;6.47;;
37843;SDS011;23930;57.632;18.292;2022-08-19T14:57:39;6.57;;;5.90;;
37843;SDS011;23930;57.632;18.292;2022-08-19T15:00:07;7.07;;;6.50;;
37843;SDS011;23930;57.632;18.292;2022-08-19T15:02:40;9.75;;;6.03;;
37843;SDS011;23930;57.632;18.292;2022-08-19T15:05:08;7.80;;;6.95;;
37843;SDS011;23930;57.632;18.292;2022-08-19T15:07:35;9.70;;;6.43;;
37843;SDS011;23930;57.632;18.292;2022-08-19T15:10:03;10.00;;;6.78;;
37843;SDS011;23930;57.632;18.292;2022-08-19T15:12:36;14.10;;;6.55;;